createdAt,value
2018-05-26T00:00:39.050Z,18.20
2018-05-26T00:03:09.413Z,20.10
2018-05-26T00:05:38.542Z,20.00
2018-05-26T00:08:07.632Z,21.80
2018-05-26T00:10:37.012Z,21.30
2018-05-26T00:13:06.009Z,22.10
2018-05-26T00:15:35.356Z,24.20
2018-05-26T00:18:04.867Z,24.60
2018-05-26T00:20:35.385Z,23.20
2018-05-26T00:23:04.563Z,23.20
2018-05-26T00:25:34.104Z,23.50
2018-05-26T00:28:03.809Z,24.10
2018-05-26T00:30:32.842Z,24.10
2018-05-26T00:33:02.074Z,23.80
2018-05-26T00:35:31.362Z,26.70
2018-05-26T00:38:00.678Z,24.50
2018-05-26T00:40:30.323Z,25.10
2018-05-26T00:43:00.480Z,26.20
2018-05-26T00:45:30.015Z,26.20
2018-05-26T00:47:59.604Z,25.80
2018-05-26T00:50:28.312Z,26.30
2018-05-26T00:52:57.085Z,26.80
2018-05-26T00:55:26.926Z,26.40
2018-05-26T00:57:56.285Z,29.30
2018-05-26T01:00:26.650Z,24.80
2018-05-26T01:05:50.272Z,26.10
2018-05-26T01:08:19.016Z,26.00
2018-05-26T01:10:48.487Z,24.20
2018-05-26T01:13:17.219Z,23.50
2018-05-26T01:15:47.462Z,23.90
2018-05-26T01:18:16.493Z,23.90
2018-05-26T01:20:45.450Z,26.70
2018-05-26T01:23:15.110Z,23.90
2018-05-26T01:25:44.355Z,18.60
2018-05-26T01:28:13.553Z,16.40
2018-05-26T01:30:42.279Z,19.30
2018-05-26T01:33:11.011Z,16.50
2018-05-26T01:35:40.374Z,17.20
2018-05-26T01:38:09.784Z,15.20
2018-05-26T01:40:40.974Z,15.00
2018-05-26T01:43:10.261Z,14.90
2018-05-26T01:45:39.572Z,15.00
2018-05-26T01:48:08.539Z,14.60
2018-05-26T01:50:38.127Z,12.60
2018-05-26T01:53:07.225Z,12.50
2018-05-26T01:55:37.135Z,14.80
2018-05-26T01:58:06.437Z,14.20
2018-05-26T02:00:36.171Z,14.30
2018-05-26T02:03:11.376Z,13.00
2018-05-26T02:05:40.504Z,12.70
2018-05-26T02:08:09.561Z,13.40
2018-05-26T02:10:39.009Z,13.20
2018-05-26T02:13:09.182Z,12.20
2018-05-26T02:15:39.921Z,13.00
2018-05-26T02:18:09.407Z,13.00
2018-05-26T02:20:39.013Z,12.30
2018-05-26T02:23:08.079Z,13.10
2018-05-26T02:25:36.867Z,12.70
2018-05-26T02:28:06.192Z,14.00
2018-05-26T02:30:35.721Z,12.30
2018-05-26T02:33:04.989Z,12.50
2018-05-26T02:35:34.141Z,12.60
2018-05-26T02:38:03.398Z,13.10
2018-05-26T02:40:32.495Z,12.60
2018-05-26T02:43:01.188Z,12.20
2018-05-26T02:45:30.069Z,13.10
2018-05-26T02:47:59.592Z,12.70
2018-05-26T02:50:29.086Z,12.40
2018-05-26T02:52:58.186Z,11.60
2018-05-26T02:55:28.069Z,11.50
2018-05-26T02:57:57.376Z,11.50
2018-05-26T03:00:26.883Z,12.50
2018-05-26T03:02:55.608Z,12.80
2018-05-26T03:05:30.657Z,11.60
2018-05-26T03:08:09.341Z,11.50
2018-05-26T03:10:44.132Z,11.70
2018-05-26T03:13:24.418Z,11.30
2018-05-26T03:15:59.255Z,12.40
2018-05-26T03:21:22.021Z,13.00
2018-05-26T03:23:52.281Z,13.20
2018-05-26T03:26:21.792Z,13.20
2018-05-26T03:28:51.946Z,13.60
2018-05-26T03:31:21.216Z,13.50
2018-05-26T03:33:50.568Z,13.50
2018-05-26T03:36:19.995Z,13.90
2018-05-26T03:38:49.338Z,13.90
2018-05-26T03:41:19.073Z,14.50
2018-05-26T03:43:49.043Z,15.20
2018-05-26T03:46:18.131Z,15.10
2018-05-26T03:48:47.466Z,15.80
2018-05-26T03:51:16.560Z,16.60
2018-05-26T03:53:45.256Z,16.90
2018-05-26T03:56:25.289Z,16.90
2018-05-26T03:59:05.775Z,18.00
2018-05-26T04:01:35.294Z,18.60
2018-05-26T04:04:04.723Z,18.60
2018-05-26T04:06:34.065Z,18.50
2018-05-26T04:09:03.108Z,18.50
2018-05-26T04:11:32.118Z,19.50
2018-05-26T04:14:00.838Z,20.20
2018-05-26T04:16:29.600Z,21.50
2018-05-26T04:18:58.590Z,20.50
2018-05-26T04:21:27.806Z,20.80
2018-05-26T04:23:57.293Z,21.00
2018-05-26T04:26:26.811Z,21.00
2018-05-26T04:28:55.907Z,21.50
2018-05-26T04:31:25.246Z,21.40
2018-05-26T04:33:54.537Z,21.90
2018-05-26T04:36:23.819Z,22.70
2018-05-26T04:38:52.665Z,22.40
2018-05-26T04:41:21.365Z,22.60
2018-05-26T04:43:50.711Z,22.70
2018-05-26T04:46:20.186Z,22.80
2018-05-26T04:48:49.456Z,22.90
2018-05-26T04:51:18.730Z,23.90
2018-05-26T04:53:48.712Z,23.60
2018-05-26T04:56:17.942Z,23.70
2018-05-26T04:58:47.911Z,23.70
2018-05-26T05:01:17.126Z,23.60
2018-05-26T05:03:47.814Z,24.70
2018-05-26T05:06:17.147Z,24.60
2018-05-26T05:08:46.682Z,24.10
2018-05-26T05:11:16.132Z,24.10
2018-05-26T05:13:46.455Z,24.60
2018-05-26T05:16:15.785Z,24.50
2018-05-26T05:18:45.064Z,25.20
2018-05-26T05:21:14.129Z,25.40
2018-05-26T05:23:43.858Z,26.50
2018-05-26T05:26:13.069Z,26.30
2018-05-26T05:28:42.375Z,25.80
2018-05-26T05:31:11.494Z,26.10
2018-05-26T05:33:40.758Z,26.70
2018-05-26T05:36:10.050Z,26.60
2018-05-26T05:38:40.151Z,27.30
2018-05-26T05:41:09.464Z,27.40
2018-05-26T05:43:38.826Z,27.40
2018-05-26T05:46:09.124Z,27.20
2018-05-26T05:48:38.435Z,27.20
2018-05-26T05:51:07.690Z,27.50
2018-05-26T05:53:36.779Z,28.60
2018-05-26T05:56:06.125Z,28.50
2018-05-26T05:58:35.395Z,28.50
2018-05-26T06:01:04.586Z,28.70
2018-05-26T06:03:34.135Z,28.90
2018-05-26T06:06:03.648Z,29.20
2018-05-26T06:08:33.131Z,29.10
2018-05-26T06:11:02.294Z,29.70
2018-05-26T06:13:31.832Z,30.00
2018-05-26T06:16:01.108Z,30.00
2018-05-26T06:18:30.384Z,30.10
2018-05-26T06:20:59.523Z,30.20
2018-05-26T06:23:28.939Z,30.70
2018-05-26T06:25:59.025Z,30.50
2018-05-26T06:28:28.100Z,30.40
2018-05-26T06:30:58.190Z,31.00
2018-05-26T06:33:27.309Z,30.90
2018-05-26T06:35:56.624Z,31.10
2018-05-26T06:38:25.957Z,30.90
2018-05-26T06:40:55.267Z,30.80
2018-05-26T06:43:24.540Z,31.20
2018-05-26T06:45:53.666Z,32.00
2018-05-26T06:48:22.677Z,32.20
2018-05-26T06:50:51.787Z,31.60
2018-05-26T06:53:21.307Z,31.80
2018-05-26T06:55:50.586Z,32.00
2018-05-26T06:58:19.770Z,32.40
2018-05-26T07:00:49.139Z,32.70
2018-05-26T07:03:18.434Z,32.60
2018-05-26T07:05:47.499Z,32.80
2018-05-26T07:08:16.849Z,33.60
2018-05-26T07:10:46.093Z,34.40
2018-05-26T07:13:15.394Z,34.30
2018-05-26T07:15:45.291Z,34.40
2018-05-26T07:18:14.361Z,34.80
2018-05-26T07:20:43.491Z,34.70
2018-05-26T07:23:12.807Z,34.90
2018-05-26T07:25:42.269Z,35.30
2018-05-26T07:28:11.576Z,36.30
2018-05-26T07:30:40.910Z,35.90
2018-05-26T07:33:10.083Z,36.00
2018-05-26T07:35:39.970Z,36.40
2018-05-26T07:38:09.101Z,36.30
2018-05-26T07:40:38.178Z,36.80
2018-05-26T07:43:07.717Z,36.80
2018-05-26T07:45:36.802Z,36.90
2018-05-26T07:48:06.551Z,36.90
2018-05-26T07:50:36.615Z,37.80
2018-05-26T07:53:05.792Z,37.60
2018-05-26T07:55:34.798Z,36.90
2018-05-26T07:58:04.151Z,38.00
2018-05-26T08:00:34.256Z,38.30
2018-05-26T08:03:04.949Z,37.50
2018-05-26T08:05:34.270Z,37.20
2018-05-26T08:08:03.661Z,38.00
2018-05-26T08:10:32.969Z,38.10
2018-05-26T08:13:02.504Z,38.20
2018-05-26T08:15:31.569Z,39.30
2018-05-26T08:18:01.010Z,38.90
2018-05-26T08:20:30.550Z,39.90
2018-05-26T08:22:59.656Z,39.80
2018-05-26T08:25:29.168Z,39.80
2018-05-26T08:27:58.452Z,40.50
2018-05-26T08:30:27.781Z,41.40
2018-05-26T08:32:57.249Z,42.30
2018-05-26T08:35:26.532Z,42.90
2018-05-26T08:37:55.777Z,43.90
2018-05-26T08:40:25.039Z,43.60
2018-05-26T08:42:54.268Z,43.40
2018-05-26T08:45:23.594Z,43.90
2018-05-26T08:47:52.856Z,45.60
2018-05-26T08:50:22.145Z,45.70
2018-05-26T08:52:51.125Z,45.50
2018-05-26T08:55:20.261Z,46.10
2018-05-26T08:57:49.550Z,45.10
2018-05-26T09:00:18.845Z,45.40
2018-05-26T09:02:48.755Z,46.20
2018-05-26T09:05:17.941Z,45.50
2018-05-26T09:07:47.378Z,46.10
2018-05-26T09:10:16.647Z,46.30
2018-05-26T09:12:45.961Z,46.80
2018-05-26T09:15:15.262Z,46.40
2018-05-26T09:17:45.425Z,46.90
2018-05-26T09:20:15.038Z,47.50
2018-05-26T09:22:45.665Z,48.40
2018-05-26T09:25:15.247Z,48.30
2018-05-26T09:27:44.281Z,47.40
2018-05-26T09:30:13.481Z,47.30
2018-05-26T09:32:42.174Z,47.10
2018-05-26T09:35:11.594Z,47.50
2018-05-26T09:37:41.040Z,46.90
2018-05-26T09:40:10.936Z,45.00
2018-05-26T09:42:40.177Z,45.80
2018-05-26T09:45:09.771Z,45.60
2018-05-26T09:47:39.197Z,45.90
2018-05-26T09:50:08.509Z,46.10
2018-05-26T09:52:37.780Z,45.90
2018-05-26T09:55:06.793Z,45.30
2018-05-26T09:57:35.909Z,45.90
2018-05-26T10:00:05.397Z,46.20
2018-05-26T10:02:34.683Z,46.30
2018-05-26T10:05:04.247Z,46.50
2018-05-26T10:07:33.524Z,46.00
2018-05-26T10:10:02.988Z,46.00
2018-05-26T10:12:32.098Z,46.10
2018-05-26T10:15:01.451Z,46.10
2018-05-26T10:17:30.713Z,45.80
2018-05-26T10:20:00.408Z,45.90
2018-05-26T10:22:30.544Z,44.90
2018-05-26T10:24:59.632Z,45.00
2018-05-26T10:27:29.032Z,45.40
2018-05-26T10:29:58.522Z,45.30
2018-05-26T10:32:27.841Z,45.10
2018-05-26T10:34:57.113Z,46.30
2018-05-26T10:37:26.532Z,47.10
2018-05-26T10:39:56.026Z,47.00
2018-05-26T10:42:25.336Z,47.30
2018-05-26T10:44:55.022Z,47.70
2018-05-26T10:47:24.226Z,48.30
2018-05-26T10:49:53.772Z,48.10
2018-05-26T10:52:23.235Z,48.30
2018-05-26T10:54:52.540Z,47.50
2018-05-26T10:57:21.627Z,47.60
2018-05-26T10:59:50.749Z,47.20
2018-05-26T11:02:19.723Z,47.00
2018-05-26T11:04:49.425Z,48.50
2018-05-26T11:07:18.560Z,48.10
2018-05-26T11:09:48.299Z,48.20
2018-05-26T11:12:17.758Z,48.40
2018-05-26T11:14:47.082Z,48.50
2018-05-26T11:17:16.569Z,48.60
2018-05-26T11:19:45.641Z,49.30
2018-05-26T11:22:14.979Z,49.60
2018-05-26T11:24:47.827Z,50.30
2018-05-26T11:27:17.297Z,50.30
2018-05-26T11:29:46.608Z,49.50
2018-05-26T11:32:15.615Z,50.40
2018-05-26T11:34:44.986Z,50.40
2018-05-26T11:37:14.197Z,50.80
2018-05-26T11:39:43.509Z,50.50
2018-05-26T11:42:14.190Z,50.70
2018-05-26T11:44:43.221Z,50.50
2018-05-26T11:47:12.568Z,49.70
2018-05-26T11:49:42.189Z,49.50
2018-05-26T11:52:11.647Z,49.40
2018-05-26T11:54:41.051Z,50.40
2018-05-26T11:57:10.295Z,49.60
2018-05-26T11:59:39.557Z,51.10
2018-05-26T12:02:08.849Z,52.30
2018-05-26T12:04:38.390Z,51.60
2018-05-26T12:07:07.474Z,51.90
2018-05-26T12:09:36.539Z,51.20
2018-05-26T12:12:05.906Z,49.40
2018-05-26T12:14:35.326Z,50.20
2018-05-26T12:17:04.354Z,49.50
2018-05-26T12:19:33.530Z,49.60
2018-05-26T12:22:04.045Z,49.10
2018-05-26T12:24:33.260Z,49.30
2018-05-26T12:27:03.236Z,49.50
2018-05-26T12:29:32.561Z,48.70
2018-05-26T12:32:01.678Z,47.30
2018-05-26T12:34:30.851Z,47.30
2018-05-26T12:37:00.260Z,45.70
2018-05-26T12:39:29.794Z,46.10
2018-05-26T12:41:59.317Z,45.90
2018-05-26T12:44:28.800Z,45.20
2018-05-26T12:46:57.885Z,45.20
2018-05-26T12:49:27.043Z,43.30
2018-05-26T12:51:56.248Z,44.20
2018-05-26T12:54:25.578Z,44.80
2018-05-26T12:56:54.705Z,44.00
2018-05-26T12:59:23.749Z,43.40
2018-05-26T13:01:52.836Z,43.30
2018-05-26T13:04:22.146Z,43.20
2018-05-26T13:06:51.440Z,42.20
2018-05-26T13:09:20.550Z,44.00
2018-05-26T13:11:50.056Z,42.00
2018-05-26T13:14:19.354Z,42.30
2018-05-26T13:16:49.397Z,41.90
2018-05-26T13:19:18.863Z,44.10
2018-05-26T13:21:48.188Z,44.20
2018-05-26T13:24:17.279Z,43.40
2018-05-26T13:26:46.662Z,45.20
2018-05-26T13:29:17.250Z,44.30
2018-05-26T13:31:47.184Z,43.50
2018-05-26T13:34:16.721Z,43.60
2018-05-26T13:36:46.052Z,43.10
2018-05-26T13:39:15.298Z,43.60
2018-05-26T13:41:44.554Z,42.90
2018-05-26T13:44:13.924Z,42.50
2018-05-26T13:46:43.202Z,43.30
2018-05-26T13:49:12.340Z,41.90
2018-05-26T13:51:42.695Z,41.30
2018-05-26T13:54:12.017Z,41.20
2018-05-26T13:56:41.233Z,39.70
2018-05-26T13:59:10.292Z,41.00
2018-05-26T14:01:39.605Z,42.50
2018-05-26T14:04:08.725Z,44.30
2018-05-26T14:06:37.775Z,45.60
2018-05-26T14:09:07.508Z,41.70
2018-05-26T14:11:36.808Z,41.50
2018-05-26T14:14:06.087Z,37.80
2018-05-26T14:16:35.310Z,40.00
2018-05-26T14:19:04.417Z,39.10
2018-05-26T14:21:33.727Z,39.70
2018-05-26T14:24:03.784Z,39.90
2018-05-26T14:26:33.058Z,40.10
2018-05-26T14:29:02.136Z,38.90
2018-05-26T14:31:31.609Z,37.20
2018-05-26T14:34:00.719Z,37.70
2018-05-26T14:36:29.875Z,37.70
2018-05-26T14:39:00.147Z,37.00
2018-05-26T14:41:29.460Z,36.70
2018-05-26T14:43:58.519Z,39.00
2018-05-26T14:46:27.642Z,35.70
2018-05-26T14:48:57.138Z,35.70
2018-05-26T14:51:26.347Z,35.60
2018-05-26T14:53:57.108Z,35.50
2018-05-26T14:56:27.189Z,35.60
2018-05-26T14:58:56.273Z,35.60
2018-05-26T15:01:25.652Z,34.20
2018-05-26T15:03:54.778Z,33.50
2018-05-26T15:06:24.056Z,35.80
2018-05-26T15:08:53.142Z,32.80
2018-05-26T15:11:22.268Z,34.60
2018-05-26T15:13:51.555Z,33.20
2018-05-26T15:16:20.871Z,33.00
2018-05-26T15:18:50.370Z,35.40
2018-05-26T15:21:19.450Z,32.30
2018-05-26T15:23:49.199Z,34.50
2018-05-26T15:26:18.048Z,33.40
2018-05-26T15:28:47.319Z,34.60
2018-05-26T15:31:16.644Z,33.10
2018-05-26T15:33:46.936Z,36.10
2018-05-26T15:36:16.492Z,35.40
2018-05-26T15:38:46.631Z,33.80
2018-05-26T15:41:16.693Z,32.70
2018-05-26T15:43:45.789Z,32.10
2018-05-26T15:46:15.165Z,35.10
2018-05-26T15:48:44.176Z,34.20
2018-05-26T15:51:13.721Z,36.70
2018-05-26T15:53:42.788Z,33.60
2018-05-26T15:56:12.128Z,35.80
2018-05-26T15:58:41.189Z,37.10
2018-05-26T16:01:10.293Z,38.10
2018-05-26T16:03:39.364Z,33.60
2018-05-26T16:06:09.547Z,35.10
2018-05-26T16:08:39.479Z,35.10
2018-05-26T16:11:08.996Z,34.30
2018-05-26T16:13:38.683Z,32.80
2018-05-26T16:16:08.242Z,35.50
2018-05-26T16:18:37.591Z,34.80
2018-05-26T16:21:06.676Z,33.00
2018-05-26T16:23:36.886Z,32.60
2018-05-26T16:26:06.899Z,32.60
2018-05-26T16:28:36.155Z,34.30
2018-05-26T16:31:04.842Z,32.90
2018-05-26T16:33:34.137Z,33.20
2018-05-26T16:36:03.571Z,32.40
2018-05-26T16:38:32.769Z,32.80
2018-05-26T16:41:02.266Z,32.80
2018-05-26T16:43:31.764Z,35.90
2018-05-26T16:46:01.273Z,35.60
2018-05-26T16:48:30.368Z,35.20
2018-05-26T16:51:00.030Z,32.80
2018-05-26T16:53:29.088Z,35.50
2018-05-26T16:55:58.377Z,35.80
2018-05-26T16:58:27.445Z,36.50
2018-05-26T17:00:56.576Z,32.70
2018-05-26T17:03:25.638Z,30.00
2018-05-26T17:05:54.990Z,33.40
2018-05-26T17:08:24.870Z,30.50
2018-05-26T17:10:54.351Z,30.50
2018-05-26T17:13:23.426Z,31.40
2018-05-26T17:15:52.749Z,28.40
2018-05-26T17:18:21.848Z,29.20
2018-05-26T17:20:51.137Z,32.60
2018-05-26T17:23:20.713Z,32.00
2018-05-26T17:25:50.145Z,29.50
2018-05-26T17:28:19.459Z,29.20
2018-05-26T17:30:48.758Z,29.80
2018-05-26T17:33:18.224Z,28.90
2018-05-26T17:35:47.312Z,28.60
2018-05-26T17:38:17.688Z,30.20
2018-05-26T17:40:46.878Z,30.20
2018-05-26T17:43:16.165Z,30.50
2018-05-26T17:45:45.577Z,29.90
2018-05-26T17:48:14.957Z,29.10
2018-05-26T17:50:44.297Z,30.20
2018-05-26T17:53:13.398Z,29.30
2018-05-26T17:55:44.120Z,28.30
2018-05-26T17:58:13.466Z,28.30
2018-05-26T18:00:42.844Z,28.10
2018-05-26T18:03:12.839Z,25.60
2018-05-26T18:05:42.081Z,25.60
2018-05-26T18:08:11.120Z,26.80
2018-05-26T18:10:40.375Z,28.20
2018-05-26T18:13:09.673Z,26.80
2018-05-26T18:15:39.641Z,25.40
2018-05-26T18:18:08.928Z,25.40
2018-05-26T18:20:37.999Z,28.50
2018-05-26T18:23:07.139Z,27.40
2018-05-26T18:25:36.396Z,28.10
2018-05-26T18:28:06.297Z,24.90
2018-05-26T18:30:35.416Z,28.30
2018-05-26T18:33:04.549Z,28.80
2018-05-26T18:35:33.801Z,27.70
2018-05-26T18:38:03.018Z,27.90
2018-05-26T18:40:32.681Z,29.50
2018-05-26T18:43:02.599Z,30.00
2018-05-26T18:45:31.738Z,30.00
2018-05-26T18:48:01.101Z,33.10
2018-05-26T18:50:30.462Z,29.50
2018-05-26T18:53:00.408Z,28.10
2018-05-26T18:55:29.710Z,28.00
2018-05-26T18:57:59.162Z,28.30
2018-05-26T19:00:28.469Z,26.30
2018-05-26T19:02:57.753Z,24.20
2018-05-26T19:05:27.009Z,22.90
2018-05-26T19:07:56.528Z,18.90
2018-05-26T19:10:25.859Z,21.90
2018-05-26T19:12:55.745Z,23.10
2018-05-26T19:15:25.039Z,22.90
2018-05-26T19:17:54.166Z,24.60
2018-05-26T19:20:23.441Z,25.50
2018-05-26T19:22:52.973Z,23.50
2018-05-26T19:25:22.194Z,23.20
2018-05-26T19:27:51.469Z,25.70
2018-05-26T19:30:20.765Z,23.60
2018-05-26T19:32:50.088Z,24.10
2018-05-26T19:35:19.566Z,24.60
2018-05-26T19:37:48.870Z,25.10
2018-05-26T19:40:18.376Z,28.20
2018-05-26T19:42:48.104Z,29.10
2018-05-26T19:45:17.500Z,25.30
2018-05-26T19:47:46.797Z,23.90
2018-05-26T19:50:15.867Z,25.90
2018-05-26T19:52:45.064Z,24.80
2018-05-26T19:55:14.177Z,24.80
2018-05-26T19:57:43.262Z,24.20
2018-05-26T20:00:12.576Z,22.30
2018-05-26T20:02:41.857Z,25.10
2018-05-26T20:05:11.146Z,24.40
2018-05-26T20:07:40.708Z,24.00
2018-05-26T20:10:09.747Z,23.00
2018-05-26T20:12:39.078Z,25.60
2018-05-26T20:15:08.558Z,26.40
2018-05-26T20:17:37.750Z,25.40
2018-05-26T20:20:07.037Z,23.30
2018-05-26T20:22:36.583Z,24.50
2018-05-26T20:25:05.823Z,23.20
2018-05-26T20:27:35.029Z,23.10
2018-05-26T20:30:04.611Z,24.90
2018-05-26T20:32:34.049Z,21.50
2018-05-26T20:35:03.337Z,19.90
2018-05-26T20:37:32.676Z,21.90
2018-05-26T20:40:01.818Z,21.80
2018-05-26T20:42:31.230Z,21.30
2018-05-26T20:45:01.436Z,18.80
2018-05-26T20:47:30.839Z,19.10
2018-05-26T20:50:00.228Z,21.40
2018-05-26T20:52:29.476Z,22.40
2018-05-26T20:54:58.755Z,19.80
2018-05-26T20:57:28.543Z,21.80
2018-05-26T20:59:57.819Z,21.60
2018-05-26T21:02:27.778Z,21.60
2018-05-26T21:04:57.101Z,21.60
2018-05-26T21:07:26.889Z,20.10
2018-05-26T21:09:56.092Z,21.20
2018-05-26T21:12:25.282Z,21.10
2018-05-26T21:14:54.408Z,20.80
2018-05-26T21:17:23.488Z,18.70
2018-05-26T21:19:52.793Z,20.70
2018-05-26T21:22:22.322Z,17.70
2018-05-26T21:24:51.385Z,18.10
2018-05-26T21:27:20.946Z,18.70
2018-05-26T21:29:50.404Z,19.30
2018-05-26T21:32:24.234Z,18.50
2018-05-26T21:34:54.193Z,19.20
2018-05-26T21:37:22.878Z,18.40
2018-05-26T21:39:52.012Z,19.10
2018-05-26T21:42:21.305Z,21.00
2018-05-26T21:44:50.588Z,17.30
2018-05-26T21:47:20.341Z,20.60
2018-05-26T21:49:50.516Z,17.60
2018-05-26T21:52:19.548Z,17.50
2018-05-26T21:54:48.321Z,19.60
2018-05-26T21:57:17.127Z,18.80
2018-05-26T21:59:46.690Z,18.90
2018-05-26T22:02:15.412Z,18.60
2018-05-26T22:04:44.116Z,19.00
2018-05-26T22:07:13.917Z,16.70
2018-05-26T22:09:43.889Z,17.20
2018-05-26T22:12:13.322Z,17.10
2018-05-26T22:14:42.521Z,21.70
2018-05-26T22:17:12.288Z,19.30
2018-05-26T22:19:41.913Z,19.40
2018-05-26T22:22:10.700Z,19.40
2018-05-26T22:24:39.399Z,21.20
2018-05-26T22:27:09.229Z,21.30
2018-05-26T22:29:38.121Z,19.40
2018-05-26T22:32:07.209Z,19.50
2018-05-26T22:34:36.492Z,18.50
2018-05-26T22:37:05.228Z,20.80
2018-05-26T22:39:33.912Z,20.20
2018-05-26T22:42:03.608Z,21.50
2018-05-26T22:44:33.077Z,20.10
2018-05-26T22:47:01.799Z,20.10
2018-05-26T22:49:31.256Z,19.40
2018-05-26T22:52:00.540Z,19.60
2018-05-26T22:54:30.308Z,21.00
2018-05-26T22:56:59.672Z,19.80
2018-05-26T22:59:28.850Z,17.80
2018-05-26T23:01:58.274Z,19.50
2018-05-26T23:04:27.851Z,19.20
2018-05-26T23:06:57.311Z,20.20
2018-05-26T23:09:26.539Z,16.70
2018-05-26T23:11:55.841Z,17.00
2018-05-26T23:14:25.153Z,15.20
2018-05-26T23:16:54.278Z,20.20
2018-05-26T23:19:23.795Z,18.20
2018-05-26T23:21:53.126Z,17.90
2018-05-26T23:24:21.965Z,18.60
2018-05-26T23:26:51.374Z,18.80
2018-05-26T23:29:20.859Z,20.40
2018-05-26T23:31:50.186Z,20.70
2018-05-26T23:34:20.703Z,18.30
2018-05-26T23:36:49.920Z,16.70
2018-05-26T23:39:19.192Z,20.20
2018-05-26T23:41:48.722Z,20.40
2018-05-26T23:44:18.026Z,17.60
2018-05-26T23:46:47.963Z,18.60
2018-05-26T23:49:17.919Z,20.50
2018-05-26T23:51:46.892Z,20.50
2018-05-26T23:54:16.343Z,20.90
2018-05-26T23:56:45.667Z,18.60
2018-05-26T23:59:14.945Z,18.00
